createdAt,value
2023-01-09T00:00:21.686Z,47.75
2023-01-09T00:02:48.421Z,45.50
2023-01-09T00:05:17.028Z,50.00
2023-01-09T00:07:43.804Z,45.25
2023-01-09T00:10:11.797Z,48.50
2023-01-09T00:12:38.826Z,47.25
2023-01-09T00:15:06.578Z,35.75
2023-01-09T00:17:33.328Z,42.50
2023-01-09T00:20:00.197Z,43.25
2023-01-09T00:22:26.888Z,42.75
2023-01-09T00:24:53.607Z,46.75
2023-01-09T00:27:20.263Z,45.75
2023-01-09T00:29:47.756Z,48.00
2023-01-09T00:32:14.377Z,43.50
2023-01-09T00:34:43.137Z,45.75
2023-01-09T00:37:12.433Z,42.00
2023-01-09T00:39:40.370Z,41.75
2023-01-09T00:42:12.905Z,45.00
2023-01-09T00:44:44.686Z,44.50
2023-01-09T00:47:17.215Z,47.50
2023-01-09T00:49:45.719Z,37.50
2023-01-09T00:52:13.688Z,42.50
2023-01-09T00:54:42.559Z,37.00
2023-01-09T00:57:15.893Z,36.75
2023-01-09T00:59:43.207Z,43.00
2023-01-09T01:02:10.436Z,42.75
2023-01-09T01:04:55.760Z,40.00
2023-01-09T01:07:41.386Z,41.00
2023-01-09T01:10:16.447Z,42.25
2023-01-09T01:12:44.375Z,40.50
2023-01-09T01:15:12.265Z,47.00
2023-01-09T01:17:41.564Z,42.50
2023-01-09T01:20:13.865Z,34.25
2023-01-09T01:22:42.638Z,42.25
2023-01-09T01:25:12.295Z,45.25
2023-01-09T01:27:39.567Z,38.75
2023-01-09T01:30:10.111Z,40.00
2023-01-09T01:32:37.109Z,38.25
2023-01-09T01:35:04.545Z,34.50
2023-01-09T01:37:31.482Z,38.50
2023-01-09T01:39:58.329Z,39.25
2023-01-09T01:42:24.958Z,33.75
2023-01-09T01:45:08.941Z,34.50
2023-01-09T01:47:41.418Z,42.00
2023-01-09T01:50:32.239Z,39.00
2023-01-09T01:53:07.704Z,40.00
2023-01-09T01:55:38.696Z,25.00
2023-01-09T01:58:10.079Z,41.50
2023-01-09T02:00:40.519Z,35.75
2023-01-09T02:03:08.195Z,43.25
2023-01-09T02:05:38.430Z,44.00
2023-01-09T02:08:06.778Z,42.00
2023-01-09T02:10:34.185Z,35.00
2023-01-09T02:13:02.581Z,23.75
2023-01-09T02:15:50.303Z,40.00
2023-01-09T02:18:32.500Z,31.00
2023-01-09T02:21:09.812Z,33.75
2023-01-09T02:24:04.686Z,37.50
2023-01-09T02:27:11.787Z,29.75
2023-01-09T02:30:10.806Z,35.00
2023-01-09T02:32:55.556Z,35.75
2023-01-09T02:35:28.225Z,31.00
2023-01-09T02:38:10.006Z,31.50
2023-01-09T02:40:44.943Z,33.00
2023-01-09T02:43:12.943Z,30.50
2023-01-09T02:45:39.916Z,28.50
2023-01-09T02:48:08.292Z,34.25
2023-01-09T02:50:48.390Z,32.00
2023-01-09T02:53:29.452Z,27.50
2023-01-09T02:56:17.304Z,31.00
2023-01-09T02:59:02.306Z,25.50
2023-01-09T03:01:52.424Z,30.75
2023-01-09T03:04:43.967Z,29.50
2023-01-09T03:07:22.455Z,36.00
2023-01-09T03:09:56.345Z,36.75
2023-01-09T03:12:28.266Z,31.00
2023-01-09T03:14:59.250Z,36.50
2023-01-09T03:17:48.576Z,26.75
2023-01-09T03:20:21.242Z,28.50
2023-01-09T03:23:00.032Z,26.50
2023-01-09T03:25:29.035Z,29.00
2023-01-09T03:28:01.825Z,29.00
2023-01-09T03:30:30.699Z,29.50
2023-01-09T03:32:58.259Z,32.25
2023-01-09T03:35:25.875Z,29.50
2023-01-09T03:37:52.573Z,28.25
2023-01-09T03:40:20.749Z,28.00
2023-01-09T03:42:48.212Z,28.75
2023-01-09T03:45:14.930Z,32.50
2023-01-09T03:47:41.651Z,29.75
2023-01-09T03:50:08.868Z,25.75
2023-01-09T03:52:36.214Z,32.00
2023-01-09T03:55:03.015Z,30.25
2023-01-09T03:57:29.669Z,26.75
2023-01-09T03:59:56.618Z,28.25
2023-01-09T04:02:23.354Z,28.25
2023-01-09T04:04:50.102Z,34.50
2023-01-09T04:07:17.143Z,27.25
2023-01-09T04:09:43.878Z,27.25
2023-01-09T04:12:10.598Z,27.50
2023-01-09T04:14:37.221Z,26.75
2023-01-09T04:17:03.964Z,32.00
2023-01-09T04:19:30.683Z,25.50
2023-01-09T04:21:57.316Z,26.75
2023-01-09T04:24:24.076Z,29.50
2023-01-09T04:26:50.754Z,27.75
2023-01-09T04:29:17.660Z,32.00
2023-01-09T04:31:44.540Z,20.25
2023-01-09T04:34:11.503Z,30.75
2023-01-09T04:36:38.909Z,28.25
2023-01-09T04:39:05.685Z,27.00
2023-01-09T04:41:50.667Z,28.75
2023-01-09T04:44:23.023Z,22.75
2023-01-09T04:46:49.858Z,28.00
2023-01-09T04:49:16.585Z,30.75
2023-01-09T04:51:43.303Z,30.25
2023-01-09T04:54:10.572Z,27.50
2023-01-09T04:56:38.987Z,28.50
2023-01-09T04:59:06.832Z,30.25
2023-01-09T05:01:34.097Z,30.50
2023-01-09T05:04:01.787Z,29.50
2023-01-09T05:06:28.786Z,29.00
2023-01-09T05:08:56.845Z,24.25
2023-01-09T05:11:25.846Z,28.25
2023-01-09T05:13:54.327Z,29.00
2023-01-09T05:16:21.992Z,30.00
2023-01-09T05:18:48.760Z,28.25
2023-01-09T05:21:15.580Z,27.00
2023-01-09T05:23:42.316Z,30.25
2023-01-09T05:26:11.712Z,29.00
2023-01-09T05:28:39.601Z,30.00
2023-01-09T05:31:06.830Z,29.50
2023-01-09T05:33:33.615Z,24.75
2023-01-09T05:36:00.319Z,38.75
2023-01-09T05:38:27.029Z,35.00
2023-01-09T05:40:53.796Z,31.50
2023-01-09T05:43:20.420Z,34.00
2023-01-09T05:45:47.223Z,33.50
2023-01-09T05:48:14.095Z,29.50
2023-01-09T05:50:44.447Z,35.00
2023-01-09T05:53:11.562Z,44.50
2023-01-09T05:55:38.301Z,32.75
2023-01-09T05:58:05.249Z,30.25
2023-01-09T06:00:31.896Z,36.00
2023-01-09T06:02:59.195Z,36.00
2023-01-09T06:05:25.916Z,34.50
2023-01-09T06:08:11.190Z,35.00
2023-01-09T06:10:38.004Z,30.50
2023-01-09T06:13:04.751Z,29.00
2023-01-09T06:15:31.509Z,31.00
2023-01-09T06:17:58.345Z,31.50
2023-01-09T06:20:25.174Z,34.75
2023-01-09T06:22:54.627Z,34.00
2023-01-09T06:25:21.410Z,33.75
2023-01-09T06:27:49.437Z,37.75
2023-01-09T06:30:16.385Z,36.75
2023-01-09T06:32:43.106Z,33.75
2023-01-09T06:35:10.303Z,28.50
2023-01-09T06:37:37.941Z,39.00
2023-01-09T06:40:05.234Z,37.50
2023-01-09T06:42:32.095Z,36.50
2023-01-09T06:44:58.948Z,33.75
2023-01-09T06:47:25.764Z,30.50
2023-01-09T06:49:52.587Z,35.75
2023-01-09T06:52:19.276Z,34.00
2023-01-09T06:54:45.903Z,33.50
2023-01-09T06:57:14.783Z,45.00
2023-01-09T06:59:41.709Z,42.50
2023-01-09T07:02:18.119Z,40.00
2023-01-09T07:04:45.769Z,33.75
2023-01-09T07:07:12.888Z,32.00
2023-01-09T07:09:39.804Z,31.00
2023-01-09T07:12:06.766Z,33.75
2023-01-09T07:14:34.099Z,33.00
2023-01-09T07:17:01.037Z,38.00
2023-01-09T07:19:28.107Z,45.00
2023-01-09T07:21:54.938Z,39.00
2023-01-09T07:24:21.915Z,43.75
2023-01-09T07:26:48.840Z,32.00
2023-01-09T07:29:15.570Z,33.00
2023-01-09T07:31:42.401Z,36.75
2023-01-09T07:34:09.555Z,36.75
2023-01-09T07:36:36.643Z,32.00
2023-01-09T07:39:03.546Z,42.25
2023-01-09T07:41:30.377Z,44.75
2023-01-09T07:43:57.552Z,45.25
2023-01-09T07:49:05.355Z,40.75
2023-01-09T07:51:32.374Z,33.75
2023-01-09T07:53:59.320Z,39.75
2023-01-09T07:56:26.096Z,37.25
2023-01-09T07:58:52.827Z,33.25
2023-01-09T08:01:19.558Z,42.75
2023-01-09T08:03:46.316Z,40.50
2023-01-09T08:06:13.203Z,43.00
2023-01-09T08:08:39.863Z,54.25
2023-01-09T08:11:07.055Z,50.00
2023-01-09T08:13:33.759Z,49.50
2023-01-09T08:16:01.058Z,41.50
2023-01-09T08:18:27.798Z,40.75
2023-01-09T08:20:54.537Z,47.50
2023-01-09T08:23:21.287Z,48.00
2023-01-09T08:25:48.039Z,53.50
2023-01-09T08:28:14.737Z,52.75
2023-01-09T08:30:41.566Z,55.75
2023-01-09T08:33:08.373Z,55.00
2023-01-09T08:35:35.537Z,53.75
2023-01-09T08:38:02.469Z,54.75
2023-01-09T08:40:29.299Z,50.25
2023-01-09T08:43:15.087Z,53.25
2023-01-09T08:46:00.242Z,53.00
2023-01-09T08:48:26.976Z,50.25
2023-01-09T08:50:54.384Z,36.50
2023-01-09T08:53:21.323Z,48.50
2023-01-09T08:55:48.076Z,44.50
2023-01-09T08:58:14.907Z,45.50
2023-01-09T09:00:41.954Z,44.50
2023-01-09T09:03:09.999Z,44.25
2023-01-09T09:05:36.713Z,52.00
2023-01-09T09:08:04.148Z,46.00
2023-01-09T09:10:31.063Z,39.50
2023-01-09T09:12:59.084Z,46.00
2023-01-09T09:15:27.154Z,40.00
2023-01-09T09:18:12.068Z,47.75
2023-01-09T09:20:39.593Z,38.00
2023-01-09T09:23:08.394Z,45.00
2023-01-09T09:25:35.573Z,46.00
2023-01-09T09:28:02.354Z,48.25
2023-01-09T09:30:29.273Z,45.00
2023-01-09T09:32:56.420Z,44.50
2023-01-09T09:35:23.635Z,35.25
2023-01-09T09:37:55.567Z,43.25
2023-01-09T09:40:35.729Z,43.75
2023-01-09T09:43:45.802Z,44.75
2023-01-09T09:46:28.756Z,40.25
2023-01-09T09:49:06.972Z,38.75
2023-01-09T09:52:20.114Z,43.75
2023-01-09T09:54:50.750Z,38.75
2023-01-09T09:57:27.859Z,42.75
2023-01-09T09:59:55.698Z,40.00
2023-01-09T10:02:27.521Z,37.00
2023-01-09T10:05:13.753Z,35.50
2023-01-09T10:07:47.689Z,37.50
2023-01-09T10:10:28.422Z,37.50
2023-01-09T10:12:58.634Z,41.00
2023-01-09T10:15:38.484Z,37.50
2023-01-09T10:18:24.291Z,45.75
2023-01-09T10:20:55.578Z,44.00
2023-01-09T10:23:24.967Z,48.25
2023-01-09T10:26:02.395Z,53.50
2023-01-09T10:28:46.105Z,52.75
2023-01-09T10:31:31.979Z,42.00
2023-01-09T10:34:22.750Z,43.25
2023-01-09T10:37:08.783Z,42.50
2023-01-09T10:39:46.135Z,45.00
2023-01-09T10:42:36.899Z,47.00
2023-01-09T10:45:30.641Z,45.75
2023-01-09T10:48:17.372Z,46.00
2023-01-09T10:50:46.792Z,42.25
2023-01-09T10:53:28.177Z,45.25
2023-01-09T10:56:00.982Z,45.75
2023-01-09T10:58:28.883Z,43.00
2023-01-09T11:00:57.251Z,45.75
2023-01-09T11:03:25.502Z,46.50
2023-01-09T11:05:58.516Z,45.00
2023-01-09T11:08:42.044Z,50.50
2023-01-09T11:11:10.272Z,50.00
2023-01-09T11:13:38.677Z,45.00
2023-01-09T11:16:11.309Z,43.00
2023-01-09T11:18:41.532Z,25.25
2023-01-09T11:21:38.308Z,43.00
2023-01-09T11:24:23.941Z,44.00
2023-01-09T11:26:52.919Z,42.75
2023-01-09T11:29:21.842Z,39.75
2023-01-09T11:31:58.500Z,45.00
2023-01-09T11:34:31.196Z,44.25
2023-01-09T11:37:10.727Z,41.00
2023-01-09T11:39:41.949Z,49.50
2023-01-09T11:42:40.734Z,48.25
2023-01-09T11:45:27.711Z,43.00
2023-01-09T11:47:54.403Z,41.00
2023-01-09T11:50:25.123Z,48.50
2023-01-09T11:53:19.514Z,38.75
2023-01-09T11:55:51.588Z,46.50
2023-01-09T11:58:21.744Z,50.50
2023-01-09T12:00:57.556Z,48.50
2023-01-09T12:03:35.175Z,47.25
2023-01-09T12:06:30.899Z,43.50
2023-01-09T12:09:23.382Z,45.75
2023-01-09T12:11:59.183Z,43.75
2023-01-09T12:14:47.319Z,52.50
2023-01-09T12:17:45.471Z,46.00
2023-01-09T12:20:30.801Z,50.25
2023-01-09T12:23:31.987Z,57.00
2023-01-09T12:26:07.638Z,51.75
2023-01-09T12:28:55.825Z,51.00
2023-01-09T12:31:22.501Z,49.00
2023-01-09T12:34:01.729Z,49.25
2023-01-09T12:36:46.907Z,46.00
2023-01-09T12:40:00.497Z,51.75
2023-01-09T12:43:20.213Z,53.50
2023-01-09T12:45:47.689Z,53.50
2023-01-09T12:48:33.192Z,50.75
2023-01-09T12:51:02.540Z,51.00
2023-01-09T12:53:34.930Z,45.75
2023-01-09T12:56:09.035Z,24.75
2023-01-09T12:58:48.128Z,51.75
2023-01-09T13:01:21.767Z,46.25
2023-01-09T13:03:51.268Z,43.00
2023-01-09T13:06:21.513Z,51.00
2023-01-09T13:08:55.727Z,45.00
2023-01-09T13:11:41.025Z,46.00
2023-01-09T13:14:22.147Z,49.00
2023-01-09T13:16:53.589Z,44.50
2023-01-09T13:19:39.681Z,48.00
2023-01-09T13:22:07.861Z,46.25
2023-01-09T13:24:44.734Z,51.75
2023-01-09T13:27:19.475Z,48.50
2023-01-09T13:29:52.442Z,49.00
2023-01-09T13:32:31.193Z,48.50
2023-01-09T13:34:58.304Z,48.25
2023-01-09T13:37:36.850Z,47.00
2023-01-09T13:40:26.740Z,41.50
2023-01-09T13:43:06.292Z,45.00
2023-01-09T13:45:35.157Z,55.50
2023-01-09T13:48:20.097Z,64.00
2023-01-09T13:50:47.836Z,63.50
2023-01-09T13:53:21.963Z,57.00
2023-01-09T13:55:58.186Z,45.50
2023-01-09T13:58:27.732Z,48.50
2023-01-09T14:01:04.448Z,43.50
2023-01-09T14:03:37.960Z,39.75
2023-01-09T14:06:16.847Z,51.25
2023-01-09T14:08:46.076Z,48.00
2023-01-09T14:11:20.750Z,44.50
2023-01-09T14:13:56.537Z,42.50
2023-01-09T14:16:27.409Z,43.25
2023-01-09T14:19:04.518Z,45.00
2023-01-09T14:21:57.942Z,61.00
2023-01-09T14:24:30.703Z,91.75
2023-01-09T14:26:59.936Z,97.00
2023-01-09T14:29:29.659Z,71.50
2023-01-09T14:32:18.172Z,57.00
2023-01-09T14:34:47.849Z,51.00
2023-01-09T14:37:14.782Z,54.00
2023-01-09T14:39:46.314Z,50.25
2023-01-09T14:42:18.669Z,43.50
2023-01-09T14:45:14.129Z,33.75
2023-01-09T14:47:47.181Z,38.75
2023-01-09T14:50:38.751Z,35.25
2023-01-09T14:53:13.148Z,31.75
2023-01-09T14:55:42.817Z,33.75
2023-01-09T14:58:23.033Z,41.00
2023-01-09T15:00:52.694Z,44.50
2023-01-09T15:03:21.519Z,45.50
2023-01-09T15:05:49.492Z,47.00
2023-01-09T15:08:22.074Z,39.25
2023-01-09T15:10:51.441Z,40.25
2023-01-09T15:13:26.406Z,60.75
2023-01-09T15:15:53.205Z,70.00
2023-01-09T15:18:25.768Z,62.00
2023-01-09T15:20:55.884Z,45.00
2023-01-09T15:23:29.482Z,47.50
2023-01-09T15:25:58.438Z,45.50
2023-01-09T15:28:29.056Z,41.00
2023-01-09T15:31:12.337Z,32.50
2023-01-09T15:33:40.784Z,44.50
2023-01-09T15:36:14.224Z,39.00
2023-01-09T15:38:42.584Z,34.75
2023-01-09T15:41:35.412Z,33.00
2023-01-09T15:44:05.448Z,35.00
2023-01-09T15:46:33.124Z,40.75
2023-01-09T15:49:00.604Z,38.00
2023-01-09T15:51:27.749Z,34.50
2023-01-09T15:53:57.620Z,35.00
2023-01-09T15:56:30.600Z,36.75
2023-01-09T15:58:59.047Z,28.25
2023-01-09T16:01:51.895Z,33.25
2023-01-09T16:04:18.717Z,33.25
2023-01-09T16:06:51.627Z,37.25
2023-01-09T16:09:25.823Z,35.50
2023-01-09T16:11:59.205Z,37.00
2023-01-09T16:14:38.798Z,44.00
2023-01-09T16:17:12.579Z,36.75
2023-01-09T16:19:50.143Z,43.25
2023-01-09T16:22:22.214Z,38.25
2023-01-09T16:24:53.617Z,36.00
2023-01-09T16:27:30.907Z,40.75
2023-01-09T16:30:02.551Z,32.00
2023-01-09T16:32:31.197Z,30.50
2023-01-09T16:35:04.613Z,36.00
2023-01-09T16:37:33.003Z,28.00
2023-01-09T16:40:22.547Z,28.00
2023-01-09T16:43:00.887Z,22.75
2023-01-09T16:45:33.257Z,32.00
2023-01-09T16:48:02.151Z,36.25
2023-01-09T16:50:29.518Z,35.00
2023-01-09T16:52:57.515Z,27.25
2023-01-09T16:55:24.597Z,34.50
2023-01-09T16:57:52.370Z,37.50
2023-01-09T17:00:21.405Z,39.00
2023-01-09T17:02:48.579Z,31.50
2023-01-09T17:05:15.776Z,36.25
2023-01-09T17:07:42.739Z,30.00
2023-01-09T17:10:21.856Z,38.50
2023-01-09T17:12:49.487Z,35.50
2023-01-09T17:15:17.041Z,38.00
2023-01-09T17:17:43.738Z,30.75
2023-01-09T17:20:18.379Z,35.00
2023-01-09T17:22:45.231Z,43.50
2023-01-09T17:25:34.956Z,42.00
2023-01-09T17:28:35.802Z,37.00
2023-01-09T17:31:09.303Z,36.50
2023-01-09T17:33:38.038Z,30.00
2023-01-09T17:36:17.147Z,38.00
2023-01-09T17:38:43.975Z,35.50
2023-01-09T17:41:14.393Z,34.50
2023-01-09T17:43:43.686Z,33.00
2023-01-09T17:46:16.384Z,40.25
2023-01-09T17:48:43.293Z,36.00
2023-01-09T17:51:12.245Z,36.00
2023-01-09T17:53:38.948Z,42.25
2023-01-09T17:56:05.707Z,38.00
2023-01-09T17:58:32.699Z,35.75
2023-01-09T18:01:00.525Z,40.50
2023-01-09T18:03:33.387Z,36.00
2023-01-09T18:06:00.620Z,35.75
2023-01-09T18:08:27.463Z,37.00
2023-01-09T18:10:54.828Z,43.75
2023-01-09T18:13:21.945Z,39.50
2023-01-09T18:15:48.880Z,33.50
2023-01-09T18:18:16.469Z,43.75
2023-01-09T18:20:45.681Z,46.00
2023-01-09T18:23:13.330Z,44.50
2023-01-09T18:25:42.179Z,41.00
2023-01-09T18:28:09.841Z,41.25
2023-01-09T18:30:37.367Z,36.50
2023-01-09T18:33:04.511Z,35.00
2023-01-09T18:35:33.800Z,38.25
2023-01-09T18:38:00.448Z,44.25
2023-01-09T18:40:27.876Z,49.00
2023-01-09T18:42:55.503Z,39.75
2023-01-09T18:45:22.421Z,38.25
2023-01-09T18:47:49.159Z,33.50
2023-01-09T18:50:16.290Z,36.75
2023-01-09T18:52:43.375Z,33.75
2023-01-09T18:55:11.024Z,37.50
2023-01-09T18:57:37.755Z,39.00
2023-01-09T19:00:05.425Z,32.00
2023-01-09T19:02:32.480Z,35.50
2023-01-09T19:04:59.378Z,33.75
2023-01-09T19:07:26.217Z,33.50
2023-01-09T19:09:53.559Z,23.25
2023-01-09T19:12:20.293Z,31.00
2023-01-09T19:14:47.200Z,37.75
2023-01-09T19:17:14.079Z,39.50
2023-01-09T19:19:43.345Z,32.00
2023-01-09T19:22:11.032Z,27.25
2023-01-09T19:24:37.797Z,34.75
2023-01-09T19:27:04.505Z,30.50
2023-01-09T19:29:31.255Z,22.50
2023-01-09T19:32:00.315Z,28.00
2023-01-09T19:34:27.066Z,34.50
2023-01-09T19:36:54.280Z,35.00
2023-01-09T19:39:21.403Z,28.00
2023-01-09T19:41:48.629Z,24.75
2023-01-09T19:44:15.858Z,26.00
2023-01-09T19:46:42.587Z,25.50
2023-01-09T19:49:09.556Z,33.00
2023-01-09T19:51:36.604Z,28.25
2023-01-09T19:54:03.478Z,25.25
2023-01-09T19:56:35.228Z,28.25
2023-01-09T19:59:04.017Z,34.00
2023-01-09T20:01:37.524Z,29.75
2023-01-09T20:04:11.498Z,26.00
2023-01-09T20:06:41.549Z,25.75
2023-01-09T20:09:11.418Z,26.25
2023-01-09T20:11:44.818Z,26.00
2023-01-09T20:14:13.874Z,25.25
2023-01-09T20:16:41.572Z,31.25
2023-01-09T20:19:10.793Z,26.75
2023-01-09T20:21:37.840Z,18.50
2023-01-09T20:24:05.927Z,27.25
2023-01-09T20:26:34.701Z,32.50
2023-01-09T20:29:01.999Z,32.50
2023-01-09T20:31:31.417Z,32.25
2023-01-09T20:34:02.260Z,28.25
2023-01-09T20:36:30.518Z,25.75
2023-01-09T20:39:00.031Z,30.75
2023-01-09T20:41:29.525Z,32.25
2023-01-09T20:44:00.855Z,30.50
2023-01-09T20:46:31.245Z,25.75
2023-01-09T20:48:59.669Z,25.00
2023-01-09T20:51:27.781Z,29.75
2023-01-09T20:53:58.662Z,32.75
2023-01-09T20:56:27.120Z,31.00
2023-01-09T20:58:54.771Z,34.75
2023-01-09T21:01:22.998Z,30.75
2023-01-09T21:03:51.247Z,34.25
2023-01-09T21:06:19.488Z,32.25
2023-01-09T21:08:47.317Z,29.25
2023-01-09T21:11:15.510Z,29.75
2023-01-09T21:13:42.515Z,24.25
2023-01-09T21:16:15.859Z,29.25
2023-01-09T21:18:44.152Z,25.75
2023-01-09T21:21:16.185Z,28.75
2023-01-09T21:23:53.954Z,28.25
2023-01-09T21:26:23.076Z,24.00
2023-01-09T21:28:50.917Z,31.00
2023-01-09T21:31:21.802Z,26.00
2023-01-09T21:33:49.347Z,23.75
2023-01-09T21:36:16.423Z,5.00
2023-01-09T21:38:43.615Z,26.25
2023-01-09T21:41:29.417Z,24.00
2023-01-09T21:44:14.880Z,20.00
2023-01-09T21:46:56.135Z,19.50
2023-01-09T21:49:25.735Z,22.00
2023-01-09T21:51:56.291Z,19.25
2023-01-09T21:54:24.373Z,27.50
2023-01-09T21:56:53.018Z,20.00
2023-01-09T21:59:20.067Z,13.50
2023-01-09T22:01:48.647Z,21.25
2023-01-09T22:04:17.048Z,17.75
2023-01-09T22:06:43.950Z,15.75
2023-01-09T22:09:12.119Z,18.50
2023-01-09T22:11:39.507Z,20.50
2023-01-09T22:14:06.468Z,18.50
2023-01-09T22:16:33.582Z,17.00
2023-01-09T22:19:00.575Z,19.50
2023-01-09T22:21:27.394Z,23.00
2023-01-09T22:23:54.505Z,22.25
2023-01-09T22:26:21.868Z,20.00
2023-01-09T22:28:49.845Z,21.75
2023-01-09T22:31:21.857Z,21.00
2023-01-09T22:33:52.742Z,24.50
2023-01-09T22:36:20.124Z,17.75
2023-01-09T22:38:47.376Z,27.00
2023-01-09T22:41:14.143Z,16.00
2023-01-09T22:43:41.123Z,18.75
2023-01-09T22:46:11.585Z,20.50
2023-01-09T22:48:39.136Z,18.50
2023-01-09T22:51:11.585Z,23.25
2023-01-09T22:53:38.306Z,15.00
2023-01-09T22:56:08.430Z,20.00
2023-01-09T22:58:35.045Z,30.25
2023-01-09T23:01:02.922Z,24.50
2023-01-09T23:03:29.536Z,12.75
2023-01-09T23:06:14.530Z,23.75
2023-01-09T23:08:42.241Z,19.50
2023-01-09T23:11:13.792Z,19.25
2023-01-09T23:13:41.091Z,18.25
2023-01-09T23:16:08.208Z,21.75
2023-01-09T23:18:35.687Z,27.50
2023-01-09T23:21:05.124Z,17.00
2023-01-09T23:23:32.525Z,15.25
2023-01-09T23:26:03.362Z,25.75
2023-01-09T23:28:30.637Z,18.00
2023-01-09T23:30:57.596Z,24.25
2023-01-09T23:33:24.481Z,22.50
2023-01-09T23:35:51.222Z,27.75
2023-01-09T23:38:17.966Z,26.00
2023-01-09T23:40:44.928Z,21.00
2023-01-09T23:43:14.381Z,22.25
2023-01-09T23:45:43.968Z,20.25
2023-01-09T23:48:15.915Z,19.50
2023-01-09T23:50:44.944Z,23.25
2023-01-09T23:53:11.910Z,24.75
2023-01-09T23:55:38.584Z,21.00
2023-01-09T23:58:05.371Z,20.00
